Time;durP1;ratioP1;P1;durP2;ratioP2;P2;SDS_P1;SDS_P2;PMS_P1;PMS_P2;Temp;Humidity;BMP_temperature;BMP_pressure;BME280_temperature;BME280_humidity;BME280_pressure;Samples;Min_cycle;Max_cycle;Signal;HPM_P1;HPM_P2
2023/11/30 00:00:03;;;;;;;2.90;1.00;;;-0.60;99.90;;;;;;5024533;28;20126;-74
2023/11/30 00:02:32;;;;;;;1.33;1.08;;;-0.60;99.90;;;;;;5019585;28;20054;-74
2023/11/30 00:04:59;;;;;;;1.48;1.10;;;-0.60;99.90;;;;;;5017466;28;20085;-77
2023/11/30 00:07:26;;;;;;;1.92;1.20;;;-0.60;99.90;;;;;;5005826;28;20056;-74
2023/11/30 00:09:52;;;;;;;1.70;1.35;;;-0.70;99.90;;;;;;5022786;28;20072;-74
2023/11/30 00:12:19;;;;;;;2.05;1.40;;;-0.70;1.00;;;;;;5023907;28;20103;-77
2023/11/30 00:14:46;;;;;;;2.83;1.52;;;-0.80;60.80;;;;;;5023728;28;20128;-77
2023/11/30 00:17:14;;;;;;;2.05;1.25;;;-0.80;99.90;;;;;;5023829;28;20053;-74
2023/11/30 00:19:41;;;;;;;3.22;1.50;;;-0.80;99.90;;;;;;5006079;28;20061;-77
2023/11/30 00:22:08;;;;;;;1.92;1.08;;;-0.80;99.90;;;;;;5021704;28;20061;-76
2023/11/30 00:24:35;;;;;;;1.88;1.20;;;-0.90;99.90;;;;;;5022863;28;20104;-77
2023/11/30 00:27:02;;;;;;;1.88;1.30;;;-0.90;1.00;;;;;;5022396;28;20107;-77
2023/11/30 00:29:28;;;;;;;1.80;1.15;;;-0.90;99.90;;;;;;5023570;28;20148;-77
2023/11/30 00:31:55;;;;;;;2.28;1.17;;;-0.90;99.90;;;;;;5005797;28;20049;-77
2023/11/30 00:34:22;;;;;;;2.00;1.27;;;-0.90;99.90;;;;;;5023456;28;20089;-73
2023/11/30 00:36:49;;;;;;;2.38;1.17;;;-0.90;99.90;;;;;;5022100;28;20457;-74
2023/11/30 00:39:16;;;;;;;2.63;1.20;;;-0.90;99.90;;;;;;5022900;28;20049;-77
2023/11/30 00:41:43;;;;;;;2.25;1.40;;;-1.00;99.90;;;;;;5021773;28;20400;-74
2023/11/30 00:44:10;;;;;;;1.58;0.95;;;-1.00;99.90;;;;;;5022100;28;20045;-74
2023/11/30 00:46:37;;;;;;;1.58;1.10;;;-1.00;99.90;;;;;;5005399;28;20702;-74
2023/11/30 00:49:04;;;;;;;1.50;1.05;;;-1.00;99.90;;;;;;5022126;28;20128;-76
2023/11/30 00:51:31;;;;;;;1.15;0.98;;;-1.00;99.90;;;;;;5022828;28;20102;-76
2023/11/30 00:53:57;;;;;;;2.35;1.20;;;-1.00;99.90;;;;;;5021069;28;20192;-77
2023/11/30 00:56:24;;;;;;;1.40;1.00;;;-1.10;25.30;;;;;;5005440;28;20068;-77
2023/11/30 00:58:51;;;;;;;1.83;1.13;;;-1.10;65.30;;;;;;4989353;28;20045;-77
2023/11/30 01:01:18;;;;;;;2.00;1.23;;;-1.10;99.90;;;;;;5022955;28;20105;-77
2023/11/30 01:03:45;;;;;;;1.35;0.93;;;-1.10;99.90;;;;;;5023255;28;20088;-77
2023/11/30 01:06:12;;;;;;;2.53;1.70;;;-1.20;99.90;;;;;;5022625;28;20106;-77
2023/11/30 01:08:39;;;;;;;2.40;1.45;;;-1.20;99.90;;;;;;5021261;28;20305;-76
2023/11/30 01:11:06;;;;;;;1.20;0.80;;;-1.20;99.90;;;;;;5021070;28;20045;-76
2023/11/30 01:13:33;;;;;;;1.73;1.00;;;-1.20;99.90;;;;;;4989465;28;20430;-77
2023/11/30 01:16:00;;;;;;;2.22;1.40;;;-1.20;99.90;;;;;;5021596;28;20077;-77
2023/11/30 01:18:27;;;;;;;1.50;1.00;;;-1.20;99.90;;;;;;5005044;28;20103;-76
2023/11/30 01:20:54;;;;;;;1.52;1.10;;;-1.20;99.90;;;;;;5004917;28;20064;-76
2023/11/30 01:23:21;;;;;;;1.83;1.02;;;-1.20;99.90;;;;;;5004243;28;20388;-77
2023/11/30 01:25:48;;;;;;;2.17;1.23;;;-1.30;99.90;;;;;;5004553;28;20099;-77
2023/11/30 01:28:15;;;;;;;2.00;1.10;;;-1.20;99.90;;;;;;5021255;28;20057;-76
2023/11/30 01:30:42;;;;;;;2.20;1.30;;;-1.20;99.90;;;;;;5022463;28;20486;-76
2023/11/30 01:33:08;;;;;;;2.08;1.55;;;-1.30;99.90;;;;;;5003935;28;20111;-77
2023/11/30 01:35:36;;;;;;;1.55;1.00;;;-1.30;99.90;;;;;;5022715;28;20457;-77
2023/11/30 01:38:03;;;;;;;1.83;1.23;;;-1.30;99.90;;;;;;5020165;28;20103;-76
2023/11/30 01:40:30;;;;;;;2.05;1.25;;;-1.40;99.90;;;;;;5005212;28;20045;-74
2023/11/30 01:42:57;;;;;;;2.53;0.95;;;-1.40;99.90;;;;;;5020703;28;20049;-77
2023/11/30 01:45:24;;;;;;;2.15;1.35;;;-1.40;99.90;;;;;;5004858;28;20121;-77
2023/11/30 01:47:51;;;;;;;2.17;1.10;;;-1.40;1.00;;;;;;5004835;28;20057;-77
2023/11/30 01:50:18;;;;;;;1.98;1.30;;;-1.50;35.20;;;;;;5020810;28;20045;-77
2023/11/30 01:52:45;;;;;;;1.10;0.88;;;-1.50;96.50;;;;;;5022183;28;20560;-76
2023/11/30 01:55:12;;;;;;;2.55;1.45;;;-1.50;99.90;;;;;;5020354;28;20057;-73
2023/11/30 01:57:39;;;;;;;2.33;1.17;;;-1.50;99.90;;;;;;5004967;28;20456;-77
2023/11/30 02:00:06;;;;;;;1.88;1.23;;;-1.50;99.90;;;;;;5004104;28;20340;-76
2023/11/30 02:02:33;;;;;;;1.63;1.00;;;-1.50;99.90;;;;;;5021093;28;20050;-77
2023/11/30 02:05:00;;;;;;;1.67;1.08;;;-1.50;41.50;;;;;;5004694;28;20068;-77
2023/11/30 02:07:27;;;;;;;1.98;1.00;;;-1.60;72.20;;;;;;5004098;28;20190;-77
2023/11/30 02:09:53;;;;;;;1.27;1.00;;;-1.60;99.90;;;;;;5019927;28;20123;-77
2023/11/30 02:12:20;;;;;;;2.05;0.90;;;-1.50;99.90;;;;;;5004302;28;20133;-77
2023/11/30 02:14:47;;;;;;;1.83;1.17;;;-1.50;99.90;;;;;;5021169;28;20054;-77
2023/11/30 02:17:15;;;;;;;2.70;1.67;;;-1.60;99.90;;;;;;5012245;28;20057;-77
2023/11/30 02:19:42;;;;;;;1.60;1.05;;;-1.60;99.90;;;;;;5019261;28;20164;-76
2023/11/30 02:22:09;;;;;;;1.42;1.02;;;-1.60;99.90;;;;;;5022139;28;20050;-77
2023/11/30 02:24:36;;;;;;;1.92;1.20;;;-1.60;99.90;;;;;;5020143;28;20061;-76
2023/11/30 02:27:02;;;;;;;2.17;1.40;;;-1.70;99.90;;;;;;5021826;28;20060;-76
2023/11/30 02:29:29;;;;;;;2.80;1.45;;;-1.70;1.00;;;;;;5021695;28;20064;-77
2023/11/30 02:31:56;;;;;;;1.83;1.00;;;-1.70;95.40;;;;;;5023520;28;20109;-76
2023/11/30 02:34:23;;;;;;;2.55;1.40;;;-1.70;99.90;;;;;;5018155;28;20108;-76
2023/11/30 02:36:50;;;;;;;1.75;1.30;;;-1.70;99.90;;;;;;5002523;28;20096;-76
2023/11/30 02:39:17;;;;;;;1.45;1.15;;;-1.70;99.90;;;;;;5004598;28;20131;-76
2023/11/30 02:41:44;;;;;;;3.00;1.48;;;-1.60;99.90;;;;;;5023517;28;20080;-76
2023/11/30 02:44:10;;;;;;;2.17;1.30;;;-1.60;99.90;;;;;;5006707;28;20095;-76
2023/11/30 02:46:37;;;;;;;1.85;1.25;;;-1.70;99.90;;;;;;5026325;28;20510;-76
2023/11/30 02:49:04;;;;;;;2.85;1.38;;;-1.70;99.90;;;;;;5025908;28;20533;-76
2023/11/30 02:51:31;;;;;;;1.75;1.13;;;-1.70;1.00;;;;;;5026889;28;20049;-76
2023/11/30 02:53:58;;;;;;;2.03;1.13;;;-1.70;1.00;;;;;;5009339;28;20398;-76
2023/11/30 02:56:25;;;;;;;1.65;0.98;;;-1.70;1.00;;;;;;5009430;28;20079;-76
2023/11/30 02:58:52;;;;;;;4.20;1.33;;;-1.70;99.90;;;;;;5009590;28;20050;-76
2023/11/30 03:01:19;;;;;;;1.55;1.00;;;-1.70;1.00;;;;;;4993255;28;20045;-76
2023/11/30 03:03:46;;;;;;;2.47;1.20;;;-1.70;99.90;;;;;;5009793;28;20158;-77
2023/11/30 03:06:13;;;;;;;2.03;1.27;;;-1.70;99.90;;;;;;5009302;28;20072;-75
2023/11/30 03:08:40;;;;;;;1.92;1.02;;;-1.70;99.90;;;;;;5025172;28;20050;-75
2023/11/30 03:11:06;;;;;;;2.13;1.20;;;-1.80;99.80;;;;;;5025055;28;20103;-75
2023/11/30 03:13:33;;;;;;;1.52;1.08;;;-1.80;1.00;;;;;;5026211;28;20053;-75
2023/11/30 03:16:00;;;;;;;1.88;1.20;;;-1.80;99.90;;;;;;5009868;28;20621;-74
2023/11/30 03:18:27;;;;;;;1.80;1.50;;;-1.80;99.90;;;;;;5025399;28;20084;-74
2023/11/30 03:20:54;;;;;;;2.75;1.73;;;-1.90;1.00;;;;;;5026763;28;20045;-74
2023/11/30 03:23:21;;;;;;;2.25;1.45;;;-1.90;1.00;;;;;;5025795;28;20053;-74
2023/11/30 03:25:48;;;;;;;1.13;0.85;;;-1.90;1.00;;;;;;5008423;28;20513;-75
2023/11/30 03:28:15;;;;;;;2.03;0.90;;;-1.90;99.90;;;;;;5026012;28;20060;-74
2023/11/30 03:30:42;;;;;;;1.80;1.15;;;-2.00;99.90;;;;;;5025523;28;20060;-75
2023/11/30 03:33:09;;;;;;;1.70;1.05;;;-2.00;99.90;;;;;;4992419;28;20064;-74
2023/11/30 03:35:36;;;;;;;1.52;1.08;;;-2.00;99.90;;;;;;5027046;28;20060;-74
2023/11/30 03:38:03;;;;;;;2.42;1.80;;;-2.00;99.90;;;;;;4992011;28;20115;-75
2023/11/30 03:40:30;;;;;;;1.98;1.30;;;-2.10;99.90;;;;;;5024990;28;20447;-75
2023/11/30 03:42:56;;;;;;;1.83;1.38;;;-2.00;1.00;;;;;;5008263;28;20636;-74
2023/11/30 03:45:23;;;;;;;1.80;1.17;;;-2.00;1.00;;;;;;5009148;28;20100;-74
2023/11/30 03:47:50;;;;;;;2.15;1.10;;;-2.00;78.40;;;;;;5025236;28;20127;-75
2023/11/30 03:50:17;;;;;;;2.05;1.30;;;-2.00;1.00;;;;;;5026395;28;20565;-75
2023/11/30 03:52:44;;;;;;;3.15;1.48;;;-2.00;99.90;;;;;;5008211;28;20129;-75
2023/11/30 03:55:11;;;;;;;1.42;0.95;;;-2.00;99.90;;;;;;5007757;28;20785;-75
2023/11/30 03:57:38;;;;;;;2.40;1.10;;;-2.00;99.90;;;;;;4991683;28;20049;-74
2023/11/30 04:00:13;;;;;;;2.58;1.60;;;-2.00;1.00;;;;;;5008151;28;20050;-76
2023/11/30 04:02:41;;;;;;;1.80;1.17;;;-2.00;1.00;;;;;;5025949;28;20053;-74
2023/11/30 04:05:10;;;;;;;2.83;1.20;;;-2.00;1.00;;;;;;5024874;28;20080;-75
2023/11/30 04:07:38;;;;;;;3.95;1.15;;;-2.10;55.00;;;;;;5008035;28;20060;-75
2023/11/30 04:10:07;;;;;;;1.73;1.30;;;-2.10;56.60;;;;;;5025021;28;20691;-75
2023/11/30 04:12:34;;;;;;;1.20;1.02;;;-2.10;1.00;;;;;;5008183;28;20377;-75
2023/11/30 04:15:02;;;;;;;2.00;1.10;;;-2.20;1.00;;;;;;5008441;28;20061;-74
2023/11/30 04:17:29;;;;;;;1.58;0.93;;;-2.20;1.00;;;;;;5024485;28;20462;-75
2023/11/30 04:19:56;;;;;;;1.67;1.40;;;-2.20;1.00;;;;;;5024078;28;20503;-75
2023/11/30 04:22:23;;;;;;;2.58;1.67;;;-2.20;1.00;;;;;;4991288;28;20056;-74
2023/11/30 04:24:50;;;;;;;2.53;1.20;;;-2.20;1.00;;;;;;5024582;28;20084;-75
2023/11/30 04:27:16;;;;;;;2.88;1.35;;;-2.20;1.00;;;;;;5024516;28;20057;-75
2023/11/30 04:29:43;;;;;;;2.85;1.40;;;-2.20;1.00;;;;;;5024206;28;20077;-75
2023/11/30 04:32:10;;;;;;;3.00;1.70;;;-2.20;99.90;;;;;;5008123;28;20123;-74
2023/11/30 04:34:37;;;;;;;1.33;0.95;;;-2.20;1.00;;;;;;4991392;28;20062;-75
2023/11/30 04:37:04;;;;;;;2.05;1.17;;;-2.20;1.00;;;;;;5025399;28;20100;-77
2023/11/30 04:39:31;;;;;;;1.50;0.90;;;-2.20;1.00;;;;;;5022973;28;20128;-77
2023/11/30 04:41:58;;;;;;;2.20;1.50;;;-2.20;1.00;;;;;;5007823;28;20136;-77
2023/11/30 04:44:28;;;;;;;1.25;0.93;;;-2.20;99.90;;;;;;5007487;28;20053;-77
2023/11/30 04:46:54;;;;;;;2.05;1.23;;;-2.30;99.90;;;;;;5023797;28;20075;-77
2023/11/30 04:49:21;;;;;;;2.05;1.40;;;-2.30;99.90;;;;;;5024175;28;20652;-77
2023/11/30 04:51:48;;;;;;;2.97;1.95;;;-2.40;99.90;;;;;;5023472;28;20051;-75
2023/11/30 04:54:15;;;;;;;2.58;1.30;;;-2.40;13.90;;;;;;5024596;28;20045;-75
2023/11/30 04:56:42;;;;;;;1.90;1.13;;;-2.40;99.90;;;;;;4990514;28;20140;-75
2023/11/30 04:59:09;;;;;;;3.75;1.40;;;-2.50;99.90;;;;;;5023938;28;20060;-75
2023/11/30 05:01:35;;;;;;;2.80;1.85;;;-2.40;99.90;;;;;;5024444;28;20041;-76
2023/11/30 05:04:04;;;;;;;2.33;1.35;;;-2.50;65.30;;;;;;5023558;28;20049;-75
2023/11/30 05:06:31;;;;;;;1.95;1.33;;;-2.50;99.90;;;;;;5024258;28;20050;-75
2023/11/30 05:08:58;;;;;;;1.77;1.23;;;-2.50;99.90;;;;;;5022749;28;20054;-75
2023/11/30 05:11:25;;;;;;;2.47;1.45;;;-2.50;99.90;;;;;;5006491;28;20084;-75
2023/11/30 05:13:52;;;;;;;2.42;1.55;;;-2.40;37.70;;;;;;5006839;28;20053;-75
2023/11/30 05:16:19;;;;;;;2.50;1.50;;;-2.50;1.00;;;;;;5024708;28;20448;-75
2023/11/30 05:18:46;;;;;;;2.50;1.52;;;-2.50;1.00;;;;;;5024991;28;20568;-76
2023/11/30 05:21:13;;;;;;;2.40;1.50;;;-2.60;99.90;;;;;;5006070;28;20060;-75
2023/11/30 05:23:39;;;;;;;2.17;1.30;;;-2.50;99.90;;;;;;5006289;28;20041;-75
2023/11/30 05:26:06;;;;;;;1.85;1.42;;;-2.60;99.90;;;;;;5006274;28;20057;-75
2023/11/30 05:28:33;;;;;;;1.83;1.30;;;-2.60;99.90;;;;;;5024708;28;20682;-75
2023/11/30 05:31:00;;;;;;;2.95;1.60;;;-2.60;71.00;;;;;;5006659;28;20053;-74
2023/11/30 05:33:29;;;;;;;2.42;1.75;;;-2.60;1.00;;;;;;5022976;28;20069;-75
2023/11/30 05:36:00;;;;;;;2.80;1.52;;;-2.60;1.00;;;;;;5007504;28;20045;-75
2023/11/30 05:38:28;;;;;;;3.65;2.10;;;-2.70;1.00;;;;;;5022204;28;20061;-74
2023/11/30 05:40:56;;;;;;;3.67;1.58;;;-2.70;99.90;;;;;;5022338;28;20469;-75
2023/11/30 05:43:22;;;;;;;3.00;1.52;;;-2.60;99.90;;;;;;5023242;28;20057;-74
2023/11/30 05:45:49;;;;;;;3.08;1.77;;;-2.60;99.90;;;;;;5023482;28;20060;-75
2023/11/30 05:48:16;;;;;;;3.05;1.70;;;-2.60;99.90;;;;;;5006835;28;20052;-75
2023/11/30 05:50:43;;;;;;;2.78;1.70;;;-2.60;99.90;;;;;;5006781;28;20136;-75
2023/11/30 05:53:10;;;;;;;1.90;1.48;;;-2.60;99.90;;;;;;5005187;28;20087;-76
2023/11/30 05:55:37;;;;;;;2.42;1.60;;;-2.60;99.90;;;;;;5022898;28;20100;-76
2023/11/30 05:58:04;;;;;;;2.55;1.38;;;-2.50;99.90;;;;;;5023277;28;20068;-76
2023/11/30 06:00:31;;;;;;;3.08;1.65;;;-2.50;1.00;;;;;;5022644;28;20053;-77
2023/11/30 06:02:58;;;;;;;3.20;1.90;;;-2.50;99.90;;;;;;5019920;28;20403;-76
2023/11/30 06:05:26;;;;;;;2.55;1.55;;;-2.50;99.90;;;;;;5021995;28;20128;-76
2023/11/30 06:07:53;;;;;;;3.20;2.05;;;-2.50;99.90;;;;;;5019526;28;20518;-76
2023/11/30 06:10:21;;;;;;;2.45;1.63;;;-2.50;99.90;;;;;;5020315;28;20049;-76
2023/11/30 06:12:48;;;;;;;2.38;1.75;;;-2.50;99.90;;;;;;4987093;28;20452;-76
2023/11/30 06:15:15;;;;;;;3.10;1.80;;;-2.50;99.90;;;;;;5018388;28;20529;-76
2023/11/30 06:17:42;;;;;;;2.53;1.60;;;-2.40;1.00;;;;;;5018205;28;20081;-76
2023/11/30 06:20:10;;;;;;;1.75;1.33;;;-2.30;45.90;;;;;;5018266;28;20375;-76
2023/11/30 06:22:38;;;;;;;2.95;1.70;;;-2.30;1.00;;;;;;5023692;28;20144;-75
2023/11/30 06:25:06;;;;;;;3.17;1.70;;;-2.30;1.00;;;;;;5017463;28;20092;-76
2023/11/30 06:27:32;;;;;;;2.28;1.50;;;-2.20;1.00;;;;;;5007236;28;20134;-76
2023/11/30 06:29:59;;;;;;;1.65;1.10;;;-2.20;99.90;;;;;;5020955;28;20049;-76
2023/11/30 06:32:26;;;;;;;2.00;1.30;;;-2.10;99.90;;;;;;5005506;28;20533;-76
2023/11/30 06:34:53;;;;;;;2.10;1.50;;;-2.10;99.90;;;;;;5023902;28;20060;-76
2023/11/30 06:37:20;;;;;;;2.97;1.45;;;-2.10;99.90;;;;;;5006864;28;20115;-75
2023/11/30 06:39:47;;;;;;;2.90;1.67;;;-2.00;99.90;;;;;;5006291;28;20068;-75
2023/11/30 06:42:14;;;;;;;2.38;1.10;;;-2.00;99.90;;;;;;4990356;28;20069;-75
2023/11/30 06:44:44;;;;;;;2.22;1.40;;;-1.90;99.90;;;;;;5007376;28;20498;-76
2023/11/30 06:47:11;;;;;;;3.00;1.70;;;-1.90;99.90;;;;;;5024390;28;20506;-75
2023/11/30 06:49:38;;;;;;;2.30;1.50;;;-1.80;99.90;;;;;;5023626;28;20190;-75
2023/11/30 06:52:05;;;;;;;3.45;2.10;;;-1.80;99.90;;;;;;5023153;28;20049;-75
2023/11/30 06:54:32;;;;;;;3.95;2.58;;;-1.70;99.90;;;;;;5020023;28;20107;-75
2023/11/30 06:56:59;;;;;;;2.10;1.63;;;-1.70;99.90;;;;;;5023464;28;20037;-75
2023/11/30 06:59:26;;;;;;;2.33;1.40;;;-1.60;1.00;;;;;;5023484;28;20127;-76
2023/11/30 07:01:55;;;;;;;2.85;1.55;;;-1.50;1.00;;;;;;5005636;28;20073;-76
2023/11/30 07:04:21;;;;;;;2.70;1.70;;;-1.40;99.90;;;;;;5023736;28;20056;-75
2023/11/30 07:06:48;;;;;;;2.63;1.55;;;-1.40;99.90;;;;;;5022420;28;20046;-75
2023/11/30 07:09:16;;;;;;;2.83;1.60;;;-1.30;99.90;;;;;;5021904;28;20056;-76
2023/11/30 07:11:43;;;;;;;2.90;1.60;;;-1.30;99.90;;;;;;5004437;28;20430;-75
2023/11/30 07:14:10;;;;;;;2.65;1.70;;;-1.20;99.90;;;;;;5022965;28;20046;-75
2023/11/30 07:16:37;;;;;;;2.65;1.58;;;-1.10;99.90;;;;;;5000597;28;20155;-75
2023/11/30 07:19:04;;;;;;;2.85;1.70;;;-1.00;99.90;;;;;;4989292;28;20535;-75
2023/11/30 07:21:30;;;;;;;2.47;1.88;;;-1.00;99.90;;;;;;5019706;28;20084;-75
2023/11/30 07:23:59;;;;;;;3.08;2.03;;;-1.00;99.90;;;;;;5001500;28;20104;-75
2023/11/30 07:26:26;;;;;;;2.60;1.63;;;-0.90;99.90;;;;;;5019179;28;20420;-75
2023/11/30 07:28:53;;;;;;;2.85;1.60;;;-0.90;99.90;;;;;;5015432;28;20053;-75
2023/11/30 07:31:22;;;;;;;2.55;1.50;;;-0.80;99.90;;;;;;4997509;28;20103;-74
2023/11/30 07:33:49;;;;;;;2.13;1.27;;;-0.70;99.90;;;;;;5016093;28;20155;-73
2023/11/30 07:36:16;;;;;;;2.63;1.50;;;-0.70;99.90;;;;;;5022648;28;20410;-74
2023/11/30 07:38:43;;;;;;;2.13;1.40;;;-0.60;99.90;;;;;;5016064;28;20094;-74
2023/11/30 07:41:11;;;;;;;2.45;1.50;;;-0.60;37.10;;;;;;5013907;28;20412;-74
2023/11/30 07:43:38;;;;;;;2.70;1.88;;;-0.60;1.00;;;;;;5023952;28;20157;-74
2023/11/30 07:46:05;;;;;;;4.00;2.38;;;-0.60;99.90;;;;;;5024730;28;20387;-74
2023/11/30 07:48:32;;;;;;;3.70;1.90;;;-0.50;1.00;;;;;;5003108;28;20064;-74
2023/11/30 07:50:59;;;;;;;3.15;2.00;;;-0.50;1.00;;;;;;5012381;28;20059;-75
2023/11/30 07:53:26;;;;;;;3.55;2.33;;;-0.40;1.00;;;;;;5023052;28;20107;-75
2023/11/30 07:55:56;;;;;;;6.60;3.90;;;-0.40;99.90;;;;;;5022371;28;20046;-75
2023/11/30 07:58:24;;;;;;;5.57;3.72;;;-0.40;99.90;;;;;;5023972;28;20057;-75
2023/11/30 08:00:51;;;;;;;6.03;3.03;;;-0.40;1.00;;;;;;5024398;28;20049;-74
2023/11/30 08:03:18;;;;;;;5.72;3.58;;;-0.40;99.90;;;;;;5022241;28;20278;-75
2023/11/30 08:05:45;;;;;;;7.55;4.65;;;-0.30;99.90;;;;;;5024131;28;20122;-74
2023/11/30 08:08:12;;;;;;;9.00;5.50;;;-0.30;99.90;;;;;;5022948;28;20053;-75
2023/11/30 08:10:39;;;;;;;9.05;6.15;;;-0.30;83.60;;;;;;5021829;28;20137;-75
2023/11/30 08:13:06;;;;;;;8.70;6.00;;;-0.30;99.90;;;;;;5022367;28;20085;-74
2023/11/30 08:15:33;;;;;;;9.85;6.40;;;-0.20;99.90;;;;;;5006532;28;20131;-75
2023/11/30 08:18:00;;;;;;;8.70;4.80;;;-0.20;99.90;;;;;;5023722;28;20129;-74
2023/11/30 08:20:27;;;;;;;6.07;3.80;;;-0.10;1.00;;;;;;5023941;28;20114;-74
2023/11/30 08:22:55;;;;;;;5.55;3.47;;;0.00;1.00;;;;;;5021103;28;20045;-75
2023/11/30 08:25:22;;;;;;;6.18;4.00;;;0.00;1.00;;;;;;5023367;28;20085;-75
2023/11/30 08:27:50;;;;;;;4.93;3.42;;;0.10;1.00;;;;;;5021865;28;20065;-74
2023/11/30 08:30:20;;;;;;;5.32;3.50;;;0.10;1.00;;;;;;5017236;28;20045;-75
2023/11/30 08:32:47;;;;;;;6.35;3.25;;;0.20;1.00;;;;;;5022820;28;20552;-75
2023/11/30 08:35:14;;;;;;;5.90;3.78;;;0.10;1.00;;;;;;5019014;28;20045;-75
2023/11/30 08:37:41;;;;;;;5.43;3.53;;;0.20;1.00;;;;;;5002608;28;20053;-75
2023/11/30 08:40:10;;;;;;;5.88;3.83;;;0.20;1.00;;;;;;5002781;28;20053;-74
2023/11/30 08:42:37;;;;;;;6.38;4.13;;;0.20;1.00;;;;;;5005448;28;20100;-74
2023/11/30 08:45:05;;;;;;;6.95;4.32;;;0.30;1.00;;;;;;5021579;28;20802;-74
2023/11/30 08:47:32;;;;;;;7.78;4.68;;;0.30;99.90;;;;;;5023078;28;20041;-75
2023/11/30 08:49:59;;;;;;;4.68;3.15;;;0.30;1.00;;;;;;5022865;28;20117;-74
2023/11/30 08:52:26;;;;;;;5.05;3.22;;;0.40;1.00;;;;;;5022177;28;20046;-74
2023/11/30 08:54:53;;;;;;;5.00;2.90;;;0.40;1.00;;;;;;5019681;28;20045;-74
2023/11/30 08:57:20;;;;;;;4.93;2.90;;;0.40;28.20;;;;;;5022944;28;20119;-75
2023/11/30 08:59:49;;;;;;;5.78;3.20;;;0.50;99.90;;;;;;5022678;28;20045;-75
2023/11/30 09:02:16;;;;;;;4.30;2.60;;;0.50;99.90;;;;;;5021861;28;20134;-75
2023/11/30 09:04:43;;;;;;;4.32;2.80;;;0.50;1.00;;;;;;5021298;28;20430;-74
2023/11/30 09:07:10;;;;;;;4.30;2.88;;;0.60;1.00;;;;;;5020027;28;20103;-77
2023/11/30 09:09:37;;;;;;;4.55;3.00;;;0.60;1.00;;;;;;5017504;28;20041;-75
2023/11/30 09:12:07;;;;;;;4.32;2.85;;;0.60;1.00;;;;;;5018041;28;20046;-74
2023/11/30 09:14:34;;;;;;;3.53;2.20;;;0.70;99.90;;;;;;5017475;28;20057;-75
2023/11/30 09:17:01;;;;;;;3.92;2.30;;;0.70;99.90;;;;;;5019278;28;20132;-75
2023/11/30 09:19:28;;;;;;;3.88;2.00;;;0.70;99.90;;;;;;5018421;28;20490;-75
2023/11/30 09:21:55;;;;;;;3.22;2.10;;;0.80;99.90;;;;;;5017399;28;20107;-77
2023/11/30 09:24:22;;;;;;;5.00;2.80;;;0.90;95.90;;;;;;5000028;28;20598;-74
2023/11/30 09:26:50;;;;;;;5.15;2.58;;;0.80;99.90;;;;;;5019205;28;20065;-74
2023/11/30 09:29:18;;;;;;;3.35;2.03;;;0.80;1.00;;;;;;5019701;28;20736;-74
2023/11/30 09:31:47;;;;;;;4.95;2.72;;;0.90;1.00;;;;;;5019425;28;20057;-74
2023/11/30 09:34:14;;;;;;;6.43;3.17;;;0.90;1.00;;;;;;5017308;28;20084;-74
2023/11/30 09:36:41;;;;;;;4.50;2.40;;;0.90;1.00;;;;;;5017384;28;20096;-75
2023/11/30 09:39:08;;;;;;;4.20;2.75;;;0.90;99.90;;;;;;5017604;28;20057;-74
2023/11/30 09:41:38;;;;;;;4.45;2.42;;;0.90;99.90;;;;;;5016807;28;20136;-74
2023/11/30 09:44:08;;;;;;;3.85;2.22;;;0.90;99.90;;;;;;5016009;28;20206;-74
2023/11/30 09:46:35;;;;;;;5.15;3.08;;;1.00;99.90;;;;;;5015853;28;20060;-75
2023/11/30 09:49:03;;;;;;;3.25;2.17;;;1.00;55.90;;;;;;5015013;28;20053;-74
2023/11/30 09:51:33;;;;;;;3.13;1.95;;;1.10;25.30;;;;;;5017567;28;20045;-75
2023/11/30 09:53:59;;;;;;;3.67;2.13;;;1.10;1.00;;;;;;5019123;28;20136;-74
2023/11/30 09:56:27;;;;;;;3.28;2.15;;;1.10;99.90;;;;;;5021376;28;20152;-74
2023/11/30 09:58:54;;;;;;;3.85;2.40;;;1.10;6.00;;;;;;5021275;28;20092;-74
2023/11/30 10:01:22;;;;;;;3.95;2.55;;;1.10;16.80;;;;;;5020861;28;20386;-74
2023/11/30 10:03:49;;;;;;;3.05;2.00;;;1.00;99.90;;;;;;5022374;28;20055;-76
2023/11/30 10:06:16;;;;;;;3.90;2.20;;;1.00;99.90;;;;;;5021497;28;20091;-72
2023/11/30 10:08:43;;;;;;;4.63;2.80;;;1.00;1.00;;;;;;5021706;28;20068;-73
2023/11/30 10:11:12;;;;;;;3.63;2.28;;;1.00;1.00;;;;;;5021016;28;20045;-73
2023/11/30 10:13:38;;;;;;;4.20;2.47;;;1.00;1.00;;;;;;5020733;28;20061;-74
2023/11/30 10:16:06;;;;;;;3.17;2.20;;;1.00;99.90;;;;;;5021078;28;20121;-74
2023/11/30 10:18:34;;;;;;;4.00;2.20;;;0.90;99.90;;;;;;5019209;28;20041;-73
2023/11/30 10:21:01;;;;;;;5.32;2.70;;;0.90;99.90;;;;;;5019482;28;20057;-74
2023/11/30 10:23:29;;;;;;;4.18;2.20;;;0.90;99.90;;;;;;5019956;28;20061;-76
2023/11/30 10:25:57;;;;;;;4.40;2.20;;;0.90;99.90;;;;;;5019899;28;20160;-73
2023/11/30 10:28:24;;;;;;;3.88;2.50;;;0.90;99.90;;;;;;5020659;28;20053;-73
2023/11/30 10:30:54;;;;;;;5.65;2.70;;;0.90;99.90;;;;;;5021368;28;20103;-73
2023/11/30 10:33:23;;;;;;;3.55;2.33;;;1.00;99.90;;;;;;5021032;28;20057;-73
2023/11/30 10:35:52;;;;;;;4.90;2.50;;;1.00;99.90;;;;;;5021608;28;20103;-73
2023/11/30 10:38:26;;;;;;;3.53;2.30;;;1.10;99.90;;;;;;5020386;28;20042;-73
2023/11/30 10:41:13;;;;;;;3.42;2.45;;;1.00;99.90;;;;;;5019552;28;20811;-75
2023/11/30 10:43:43;;;;;;;4.25;2.47;;;1.00;65.30;;;;;;5019812;28;20079;-76
2023/11/30 10:46:13;;;;;;;5.35;2.67;;;1.00;79.20;;;;;;5003772;28;20076;-75
2023/11/30 10:48:39;;;;;;;4.80;2.50;;;1.00;94.60;;;;;;5004072;28;20132;-76
2023/11/30 10:51:07;;;;;;;4.13;2.25;;;1.00;99.90;;;;;;5019905;28;20253;-75
2023/11/30 10:53:34;;;;;;;3.97;2.45;;;1.10;99.90;;;;;;5019710;28;20056;-75
2023/11/30 10:56:01;;;;;;;3.83;2.03;;;1.10;99.90;;;;;;5020827;28;20122;-76
2023/11/30 10:58:28;;;;;;;4.13;2.38;;;1.10;99.90;;;;;;5004079;28;20053;-76
2023/11/30 11:00:57;;;;;;;3.25;2.10;;;1.20;99.90;;;;;;5019721;28;20664;-76
2023/11/30 11:03:26;;;;;;;4.25;2.30;;;1.30;70.00;;;;;;5003298;28;20533;-75
2023/11/30 11:05:54;;;;;;;3.25;1.85;;;1.40;99.90;;;;;;5021002;28;20050;-76
2023/11/30 11:08:21;;;;;;;3.38;2.00;;;1.50;94.30;;;;;;5022182;28;20061;-76
2023/11/30 11:10:48;;;;;;;3.40;2.05;;;1.50;1.00;;;;;;5006657;28;20094;-76
2023/11/30 11:13:21;;;;;;;4.65;2.40;;;1.60;99.90;;;;;;5024570;28;20080;-75
2023/11/30 11:15:57;;;;;;;3.20;2.42;;;1.60;99.90;;;;;;5023950;28;20053;-76
2023/11/30 11:18:35;;;;;;;3.25;2.00;;;1.70;99.90;;;;;;5023778;28;20057;-76
2023/11/30 11:21:02;;;;;;;4.07;2.33;;;1.70;99.90;;;;;;5022926;28;20068;-76
2023/11/30 11:23:37;;;;;;;2.75;1.80;;;1.80;99.90;;;;;;5023083;28;20049;-76
2023/11/30 11:26:05;;;;;;;2.92;1.77;;;1.80;22.10;;;;;;5023043;28;20348;-76
2023/11/30 11:28:32;;;;;;;3.08;1.67;;;1.90;6.40;;;;;;5019722;28;20482;-76
2023/11/30 11:30:59;;;;;;;3.30;1.83;;;1.90;96.10;;;;;;5020061;28;20267;-76
2023/11/30 11:33:27;;;;;;;3.35;2.13;;;2.00;1.00;;;;;;5019751;28;20081;-73
2023/11/30 11:35:54;;;;;;;3.47;1.90;;;2.00;1.00;;;;;;5021813;28;20132;-74
2023/11/30 11:38:21;;;;;;;3.42;2.00;;;2.10;99.90;;;;;;5018866;28;20056;-74
2023/11/30 11:40:48;;;;;;;4.38;2.75;;;2.10;99.90;;;;;;5020424;28;20061;-76
2023/11/30 11:43:15;;;;;;;4.53;2.47;;;2.10;99.90;;;;;;5016733;28;20045;-74
2023/11/30 11:45:42;;;;;;;3.58;2.20;;;2.20;99.90;;;;;;5019600;28;20046;-73
2023/11/30 11:48:10;;;;;;;2.85;1.88;;;2.20;99.90;;;;;;5021348;28;20779;-73
2023/11/30 11:50:38;;;;;;;4.28;2.38;;;2.30;99.90;;;;;;5020932;28;20057;-73
2023/11/30 11:53:05;;;;;;;3.92;2.28;;;2.40;99.90;;;;;;5016379;28;20485;-73
2023/11/30 11:55:32;;;;;;;3.90;2.78;;;2.50;99.90;;;;;;5016799;28;20277;-73
2023/11/30 11:57:59;;;;;;;4.93;2.53;;;2.50;1.00;;;;;;5017029;28;20057;-73
2023/11/30 12:00:26;;;;;;;3.92;2.38;;;2.50;1.00;;;;;;5016967;28;20053;-75
2023/11/30 12:03:06;;;;;;;4.32;3.17;;;2.60;1.00;;;;;;5016039;28;20057;-73
2023/11/30 12:05:33;;;;;;;4.03;2.55;;;2.70;52.20;;;;;;5015281;28;20157;-73
2023/11/30 12:08:00;;;;;;;3.30;2.25;;;2.80;24.80;;;;;;5015101;28;20419;-73
2023/11/30 12:10:39;;;;;;;3.90;2.42;;;2.90;6.60;;;;;;5018363;28;20053;-73
2023/11/30 12:13:07;;;;;;;4.18;2.38;;;3.00;1.00;;;;;;5018366;28;20079;-73
2023/11/30 12:15:33;;;;;;;4.80;2.53;;;3.10;1.00;;;;;;5000949;28;20057;-73
2023/11/30 12:18:01;;;;;;;3.97;2.55;;;3.10;1.00;;;;;;5014317;28;20065;-73
2023/11/30 12:20:28;;;;;;;4.07;2.53;;;3.10;1.00;;;;;;5013436;28;20744;-73
2023/11/30 12:22:55;;;;;;;3.30;1.90;;;3.20;1.00;;;;;;5016964;28;20190;-74
2023/11/30 12:25:24;;;;;;;3.63;2.60;;;3.20;1.00;;;;;;5017259;28;20568;-74
2023/11/30 12:27:51;;;;;;;4.88;3.08;;;3.30;1.00;;;;;;5020108;28;20045;-74
2023/11/30 12:30:18;;;;;;;3.97;2.45;;;3.40;99.90;;;;;;5020698;28;20060;-74
2023/11/30 12:32:46;;;;;;;4.03;2.42;;;3.40;99.90;;;;;;5020175;28;20057;-74
2023/11/30 12:35:12;;;;;;;3.80;2.30;;;3.50;99.90;;;;;;5018872;28;20049;-75
2023/11/30 12:37:39;;;;;;;3.72;2.40;;;3.50;99.90;;;;;;5013035;28;20060;-74
2023/11/30 12:40:09;;;;;;;3.63;2.60;;;3.70;99.90;;;;;;5017346;28;20100;-74
2023/11/30 12:42:41;;;;;;;3.58;2.33;;;3.70;99.90;;;;;;5014557;28;20111;-74
2023/11/30 12:45:09;;;;;;;2.83;2.05;;;3.80;99.90;;;;;;5018266;28;20049;-75
2023/11/30 12:47:36;;;;;;;4.70;2.72;;;3.80;99.90;;;;;;5018170;28;20068;-74
2023/11/30 12:50:04;;;;;;;3.50;2.40;;;3.80;99.90;;;;;;5020153;28;20049;-75
2023/11/30 12:52:31;;;;;;;3.38;2.08;;;3.80;99.90;;;;;;5018920;28;20482;-74